createdAt,value
2018-01-21T00:00:37.540Z,90.15
2018-01-21T00:01:37.538Z,90.62
2018-01-21T00:02:37.536Z,90.43
2018-01-21T00:03:37.535Z,90.53
2018-01-21T00:04:37.541Z,90.15
2018-01-21T00:05:37.545Z,89.96
2018-01-21T00:06:37.542Z,89.96
2018-01-21T00:07:37.549Z,90.24
2018-01-21T00:08:37.548Z,89.86
2018-01-21T00:09:37.546Z,89.86
2018-01-21T00:10:37.550Z,90.62
2018-01-21T00:11:37.551Z,90.62
2018-01-21T00:12:37.554Z,90.05
2018-01-21T00:13:37.587Z,90.43
2018-01-21T00:14:37.560Z,90.81
2018-01-21T00:15:37.558Z,90.91
2018-01-21T00:16:37.563Z,90.53
2018-01-21T00:17:37.568Z,90.24
2018-01-21T00:18:37.564Z,90.24
2018-01-21T00:19:37.566Z,90.62
2018-01-21T00:20:37.571Z,90.62
2018-01-21T00:21:37.580Z,90.53
2018-01-21T00:22:37.566Z,90.62
2018-01-21T00:23:37.578Z,89.96
2018-01-21T00:24:37.570Z,90.72
2018-01-21T00:25:37.589Z,90.72
2018-01-21T00:26:37.576Z,90.53
2018-01-21T00:27:37.579Z,90.91
2018-01-21T00:28:37.578Z,90.81
2018-01-21T00:29:37.583Z,90.91
2018-01-21T00:30:37.580Z,90.81
2018-01-21T00:31:37.589Z,91.38
2018-01-21T00:32:37.584Z,91.14
2018-01-21T00:33:37.594Z,90.62
2018-01-21T00:34:37.590Z,90.62
2018-01-21T00:35:37.590Z,90.81
2018-01-21T00:36:37.598Z,90.43
2018-01-21T00:37:37.600Z,90.53
2018-01-21T00:38:37.596Z,90.81
2018-01-21T00:39:37.600Z,91.47
2018-01-21T00:40:37.604Z,91.95
2018-01-21T00:41:37.604Z,91.85
2018-01-21T00:42:37.612Z,91.85
2018-01-21T00:43:37.603Z,91.85
2018-01-21T00:44:37.602Z,91.85
2018-01-21T00:45:37.621Z,91.76
2018-01-21T00:46:37.613Z,91.95
2018-01-21T00:47:37.614Z,91.95
2018-01-21T00:48:37.615Z,92.52
2018-01-21T00:49:37.616Z,92.61
2018-01-21T00:50:37.620Z,92.71
2018-01-21T00:51:37.625Z,92.90
2018-01-21T00:52:37.624Z,92.90
2018-01-21T00:53:37.627Z,93.27
2018-01-21T00:54:37.626Z,92.90
2018-01-21T00:55:37.628Z,92.99
2018-01-21T00:56:37.630Z,93.08
2018-01-21T00:57:37.627Z,93.27
2018-01-21T00:58:37.625Z,93.08
2018-01-21T00:59:37.634Z,93.18
2018-01-21T01:00:37.635Z,93.08
2018-01-21T01:01:37.634Z,92.80
2018-01-21T01:02:37.637Z,92.99
2018-01-21T01:03:38.597Z,93.08
2018-01-21T01:04:37.640Z,92.90
2018-01-21T01:05:37.641Z,92.52
2018-01-21T01:06:37.652Z,92.42
2018-01-21T01:07:37.645Z,92.04
2018-01-21T01:08:37.650Z,92.42
2018-01-21T01:09:37.649Z,92.71
2018-01-21T01:10:37.670Z,92.80
2018-01-21T01:11:37.689Z,92.99
2018-01-21T01:12:37.654Z,92.99
2018-01-21T01:13:37.650Z,92.71
2018-01-21T01:15:30.593Z,92.90
2018-01-21T01:16:30.587Z,93.18
2018-01-21T01:18:23.565Z,93.08
2018-01-21T01:19:23.530Z,93.65
2018-01-21T01:21:16.500Z,93.08
2018-01-21T01:22:16.500Z,93.37
2018-01-21T01:24:09.468Z,94.04
2018-01-21T01:25:09.472Z,93.65
2018-01-21T01:27:02.437Z,93.94
2018-01-21T01:28:02.404Z,93.75
2018-01-21T01:29:55.368Z,93.75
2018-01-21T01:30:55.367Z,93.65
2018-01-21T01:32:48.339Z,93.18
2018-01-21T01:33:48.318Z,93.46
2018-01-21T01:35:41.307Z,93.56
2018-01-21T01:36:41.297Z,93.75
2018-01-21T01:38:34.260Z,93.65
2018-01-21T01:39:34.232Z,93.65
2018-01-21T01:41:27.190Z,93.94
2018-01-21T01:42:27.193Z,93.46
2018-01-21T01:43:27.196Z,93.46
2018-01-21T01:44:27.199Z,93.37
2018-01-21T01:45:27.201Z,94.04
2018-01-21T01:46:27.203Z,93.46
2018-01-21T01:47:27.200Z,93.46
2018-01-21T01:48:27.202Z,93.37
2018-01-21T01:49:27.206Z,93.32
2018-01-21T01:50:27.206Z,92.94
2018-01-21T01:51:27.201Z,92.94
2018-01-21T01:52:27.209Z,92.85
2018-01-21T01:53:27.211Z,93.13
2018-01-21T01:54:27.206Z,93.04
2018-01-21T01:55:27.212Z,92.66
2018-01-21T01:56:27.215Z,92.85
2018-01-21T01:57:27.214Z,93.04
2018-01-21T01:58:27.213Z,92.94
2018-01-21T01:59:27.215Z,92.66
2018-01-21T02:00:28.182Z,92.85
2018-01-21T02:01:27.224Z,93.04
2018-01-21T02:02:27.227Z,93.04
2018-01-21T02:03:27.220Z,92.66
2018-01-21T02:04:27.234Z,93.13
2018-01-21T02:05:27.231Z,93.13
2018-01-21T02:06:27.233Z,92.66
2018-01-21T02:07:27.229Z,93.04
2018-01-21T02:08:27.231Z,93.13
2018-01-21T02:09:27.232Z,93.04
2018-01-21T02:10:27.238Z,92.85
2018-01-21T02:11:27.238Z,92.66
2018-01-21T02:12:27.235Z,92.66
2018-01-21T02:13:27.242Z,92.38
2018-01-21T02:14:27.244Z,91.99
2018-01-21T02:15:27.249Z,92.47
2018-01-21T02:16:27.243Z,92.28
2018-01-21T02:17:27.248Z,92.09
2018-01-21T02:18:27.244Z,92.09
2018-01-21T02:19:27.257Z,92.04
2018-01-21T02:20:27.249Z,91.80
2018-01-21T02:21:27.257Z,91.71
2018-01-21T02:22:27.254Z,92.09
2018-01-21T02:23:27.262Z,92.23
2018-01-21T02:24:27.256Z,91.80
2018-01-21T02:25:27.280Z,91.71
2018-01-21T02:26:27.260Z,92.28
2018-01-21T02:27:27.265Z,91.66
2018-01-21T02:28:27.269Z,92.28
2018-01-21T02:29:27.269Z,91.52
2018-01-21T02:30:27.265Z,91.71
2018-01-21T02:31:27.272Z,91.76
2018-01-21T02:32:27.274Z,92.23
2018-01-21T02:33:27.270Z,92.33
2018-01-21T02:34:27.274Z,92.09
2018-01-21T02:35:27.277Z,91.80
2018-01-21T02:36:27.272Z,91.71
2018-01-21T02:37:27.274Z,91.80
2018-01-21T02:38:27.290Z,91.47
2018-01-21T02:39:27.290Z,92.14
2018-01-21T02:40:27.286Z,91.90
2018-01-21T02:41:27.291Z,92.28
2018-01-21T02:42:27.293Z,91.90
2018-01-21T02:43:27.290Z,91.24
2018-01-21T02:44:27.293Z,91.61
2018-01-21T02:45:27.290Z,91.05
2018-01-21T02:46:27.299Z,91.52
2018-01-21T02:47:27.296Z,91.05
2018-01-21T02:48:27.305Z,91.52
2018-01-21T02:49:27.301Z,91.71
2018-01-21T02:50:27.330Z,91.42
2018-01-21T02:51:27.306Z,91.28
2018-01-21T02:52:27.307Z,91.47
2018-01-21T02:53:27.305Z,91.38
2018-01-21T02:54:27.312Z,91.47
2018-01-21T02:55:27.320Z,91.28
2018-01-21T02:56:27.319Z,91.57
2018-01-21T02:57:27.313Z,91.95
2018-01-21T02:58:27.312Z,91.85
2018-01-21T02:59:27.318Z,91.66
2018-01-21T03:00:27.315Z,91.76
2018-01-21T03:01:27.323Z,91.57
2018-01-21T03:02:27.322Z,91.85
2018-01-21T03:03:27.327Z,91.57
2018-01-21T03:04:27.322Z,91.76
2018-01-21T03:05:27.323Z,92.04
2018-01-21T03:06:27.328Z,92.04
2018-01-21T03:07:27.328Z,92.14
2018-01-21T03:08:27.333Z,92.04
2018-01-21T03:09:27.328Z,92.71
2018-01-21T03:10:27.335Z,92.61
2018-01-21T03:11:27.332Z,92.52
2018-01-21T03:12:27.341Z,92.80
2018-01-21T03:13:27.339Z,92.23
2018-01-21T03:14:27.339Z,92.52
2018-01-21T03:15:27.348Z,92.57
2018-01-21T03:16:27.343Z,92.66
2018-01-21T03:17:27.342Z,93.04
2018-01-21T03:18:27.342Z,93.23
2018-01-21T03:19:27.346Z,93.23
2018-01-21T03:20:27.343Z,92.85
2018-01-21T03:21:27.350Z,93.32
2018-01-21T03:22:27.347Z,93.61
2018-01-21T03:23:27.349Z,93.80
2018-01-21T03:24:28.198Z,93.70
2018-01-21T03:25:27.353Z,94.18
2018-01-21T03:26:27.347Z,93.80
2018-01-21T03:27:27.358Z,94.65
2018-01-21T03:28:27.365Z,94.56
2018-01-21T03:29:27.355Z,94.27
2018-01-21T03:30:27.357Z,94.74
2018-01-21T03:31:27.358Z,94.93
2018-01-21T03:32:27.354Z,95.03
2018-01-21T03:33:27.358Z,94.74
2018-01-21T03:34:27.362Z,94.74
2018-01-21T03:35:27.366Z,94.65
2018-01-21T03:36:27.360Z,94.93
2018-01-21T03:37:27.361Z,94.84
2018-01-21T03:38:27.363Z,94.56
2018-01-21T03:39:27.365Z,94.84
2018-01-21T03:40:27.362Z,95.17
2018-01-21T03:41:27.366Z,95.12
2018-01-21T03:42:27.366Z,95.31
2018-01-21T03:43:27.375Z,95.22
2018-01-21T03:44:28.198Z,95.17
2018-01-21T03:45:27.369Z,95.22
2018-01-21T03:46:27.372Z,96.02
2018-01-21T03:47:27.405Z,95.98
2018-01-21T03:48:27.370Z,95.98
2018-01-21T03:49:27.373Z,96.07
2018-01-21T03:50:27.376Z,96.02
2018-01-21T03:51:27.375Z,95.17
2018-01-21T03:52:27.371Z,96.07
2018-01-21T03:53:27.372Z,95.98
2018-01-21T03:54:27.374Z,95.41
2018-01-21T03:55:27.378Z,95.22
2018-01-21T03:56:27.377Z,95.31
2018-01-21T03:57:27.376Z,95.31
2018-01-21T03:58:27.379Z,95.22
2018-01-21T03:59:27.379Z,95.31
2018-01-21T04:00:27.375Z,95.17
2018-01-21T04:01:27.377Z,94.98
2018-01-21T04:02:27.385Z,95.36
2018-01-21T04:03:27.379Z,94.84
2018-01-21T04:04:27.379Z,95.31
2018-01-21T04:05:27.381Z,95.03
2018-01-21T04:06:27.391Z,95.17
2018-01-21T04:07:27.386Z,95.07
2018-01-21T04:08:27.386Z,94.70
2018-01-21T04:09:27.381Z,95.17
2018-01-21T04:10:27.382Z,94.89
2018-01-21T04:11:27.383Z,95.17
2018-01-21T04:12:27.389Z,95.17
2018-01-21T04:13:27.386Z,95.07
2018-01-21T04:14:27.385Z,95.17
2018-01-21T04:15:27.392Z,95.07
2018-01-21T04:16:27.393Z,95.07
2018-01-21T04:17:27.383Z,95.17
2018-01-21T04:18:27.395Z,95.07
2018-01-21T04:19:27.391Z,95.74
2018-01-21T04:20:27.395Z,95.64
2018-01-21T04:21:27.390Z,95.64
2018-01-21T04:22:27.395Z,96.12
2018-01-21T04:23:27.393Z,95.93
2018-01-21T04:24:27.390Z,95.93
2018-01-21T04:25:27.393Z,95.93
2018-01-21T04:26:27.399Z,95.93
2018-01-21T04:27:27.391Z,96.02
2018-01-21T04:28:27.392Z,95.64
2018-01-21T04:29:27.394Z,96.12
2018-01-21T04:30:27.395Z,95.74
2018-01-21T04:31:27.396Z,95.93
2018-01-21T04:32:27.398Z,95.93
2018-01-21T04:33:27.392Z,95.93
2018-01-21T04:34:27.397Z,95.93
2018-01-21T04:35:27.396Z,96.12
2018-01-21T04:36:27.398Z,95.93
2018-01-21T04:37:27.396Z,95.64
2018-01-21T04:38:27.391Z,95.45
2018-01-21T04:39:27.396Z,96.21
2018-01-21T04:40:27.401Z,95.93
2018-01-21T04:41:27.410Z,95.74
2018-01-21T04:42:27.398Z,95.55
2018-01-21T04:43:27.397Z,95.74
2018-01-21T04:44:27.401Z,95.93
2018-01-21T04:45:27.400Z,95.93
2018-01-21T04:46:27.394Z,96.02
2018-01-21T04:47:27.400Z,96.40
2018-01-21T04:48:27.401Z,96.12
2018-01-21T04:49:27.401Z,96.21
2018-01-21T04:50:27.405Z,96.12
2018-01-21T04:51:27.401Z,95.93
2018-01-21T04:52:27.402Z,95.93
2018-01-21T04:53:27.406Z,96.31
2018-01-21T04:54:27.398Z,95.83
2018-01-21T04:55:27.405Z,96.02
2018-01-21T04:56:27.400Z,96.59
2018-01-21T04:57:27.401Z,96.69
2018-01-21T04:58:27.404Z,96.50
2018-01-21T04:59:27.403Z,96.40
2018-01-21T05:00:27.403Z,96.40
2018-01-21T05:01:27.404Z,96.40
2018-01-21T05:02:27.405Z,96.97
2018-01-21T05:03:27.404Z,97.06
2018-01-21T05:04:27.398Z,96.31
2018-01-21T05:05:27.401Z,96.88
2018-01-21T05:06:27.403Z,97.16
2018-01-21T05:07:27.404Z,97.25
2018-01-21T05:08:27.406Z,97.35
2018-01-21T05:09:27.402Z,97.35
2018-01-21T05:10:27.405Z,96.78
2018-01-21T05:11:27.403Z,96.88
2018-01-21T05:12:27.408Z,96.40
2018-01-21T05:13:27.408Z,96.69
2018-01-21T05:14:27.402Z,96.50
2018-01-21T05:15:27.399Z,96.50
2018-01-21T05:16:27.413Z,96.40
2018-01-21T05:17:27.400Z,97.06
2018-01-21T05:18:27.403Z,96.31
2018-01-21T05:19:27.400Z,96.59
2018-01-21T05:20:27.405Z,96.02
2018-01-21T05:21:27.404Z,96.31
2018-01-21T05:22:27.406Z,96.40
2018-01-21T05:23:27.407Z,95.64
2018-01-21T05:24:27.413Z,96.02
2018-01-21T05:25:27.402Z,95.64
2018-01-21T05:26:27.409Z,95.74
2018-01-21T05:27:27.412Z,95.74
2018-01-21T05:28:27.409Z,95.93
2018-01-21T05:29:27.410Z,96.31
2018-01-21T05:30:27.411Z,96.21
2018-01-21T05:31:27.415Z,95.93
2018-01-21T05:32:27.408Z,96.31
2018-01-21T05:33:27.410Z,96.31
2018-01-21T05:34:27.405Z,96.21
2018-01-21T05:35:28.230Z,95.93
2018-01-21T05:36:27.414Z,96.31
2018-01-21T05:37:27.413Z,96.31
2018-01-21T05:38:27.412Z,96.12
2018-01-21T05:39:27.412Z,96.69
2018-01-21T05:40:27.406Z,96.50
2018-01-21T05:41:27.409Z,96.88
2018-01-21T05:42:27.411Z,97.25
2018-01-21T05:43:27.410Z,96.69
2018-01-21T05:44:27.407Z,96.50
2018-01-21T05:45:27.410Z,96.31
2018-01-21T05:46:27.417Z,96.21
2018-01-21T05:47:27.412Z,96.50
2018-01-21T05:48:27.412Z,96.97
2018-01-21T05:49:27.416Z,97.16
2018-01-21T05:50:27.408Z,97.20
2018-01-21T05:51:27.412Z,96.92
2018-01-21T05:52:27.411Z,97.06
2018-01-21T05:53:27.412Z,97.06
2018-01-21T05:54:27.414Z,97.20
2018-01-21T05:55:27.417Z,97.49
2018-01-21T05:56:27.419Z,97.30
2018-01-21T05:57:27.413Z,97.54
2018-01-21T05:58:27.421Z,97.25
2018-01-21T05:59:27.416Z,97.11
2018-01-21T06:00:27.414Z,97.11
2018-01-21T06:01:27.427Z,97.20
2018-01-21T06:02:27.415Z,97.20
2018-01-21T06:03:27.415Z,97.25
2018-01-21T06:04:27.416Z,97.30
2018-01-21T06:05:27.417Z,97.25
2018-01-21T06:06:27.415Z,97.20
2018-01-21T06:07:27.410Z,97.54
2018-01-21T06:08:28.967Z,97.11
2018-01-21T06:09:27.415Z,96.64
2018-01-21T06:10:27.414Z,97.02
2018-01-21T06:11:27.419Z,96.73
2018-01-21T06:12:27.414Z,97.30
2018-01-21T06:13:27.419Z,97.11
2018-01-21T06:14:27.410Z,97.25
2018-01-21T06:15:27.419Z,97.49
2018-01-21T06:16:27.413Z,97.35
2018-01-21T06:17:27.413Z,97.35
2018-01-21T06:18:27.411Z,97.30
2018-01-21T06:19:27.410Z,97.39
2018-01-21T06:20:27.424Z,97.11
2018-01-21T06:21:27.412Z,97.20
2018-01-21T06:22:27.413Z,97.11
2018-01-21T06:23:27.417Z,97.49
2018-01-21T06:24:27.415Z,97.58
2018-01-21T06:25:27.409Z,97.68
2018-01-21T06:26:27.414Z,97.58
2018-01-21T06:27:27.413Z,97.39
2018-01-21T06:28:27.417Z,97.39
2018-01-21T06:29:27.408Z,97.30
2018-01-21T06:30:27.418Z,97.96
2018-01-21T06:31:27.409Z,97.96
2018-01-21T06:32:27.415Z,97.92
2018-01-21T06:33:27.415Z,97.92
2018-01-21T06:34:27.450Z,97.49
2018-01-21T06:35:27.409Z,98.11
2018-01-21T06:36:27.413Z,97.54
2018-01-21T06:37:27.426Z,97.54
2018-01-21T06:38:27.413Z,97.82
2018-01-21T06:39:27.413Z,97.73
2018-01-21T06:40:27.417Z,97.35
2018-01-21T06:41:27.417Z,97.35
2018-01-21T06:42:27.419Z,97.35
2018-01-21T06:43:27.412Z,97.63
2018-01-21T06:44:27.412Z,97.35
2018-01-21T06:45:27.414Z,97.35
2018-01-21T06:46:27.414Z,97.06
2018-01-21T06:47:27.416Z,96.78
2018-01-21T06:48:27.412Z,96.69
2018-01-21T06:49:27.416Z,96.50
2018-01-21T06:50:27.416Z,97.25
2018-01-21T06:51:27.420Z,96.21
2018-01-21T06:52:27.412Z,96.21
2018-01-21T06:53:27.412Z,96.31
2018-01-21T06:54:27.416Z,96.50
2018-01-21T06:55:27.418Z,96.31
2018-01-21T06:56:27.416Z,96.31
2018-01-21T06:57:27.422Z,96.21
2018-01-21T06:58:27.414Z,96.31
2018-01-21T06:59:27.417Z,96.40
2018-01-21T07:00:27.421Z,96.02
2018-01-21T07:01:27.428Z,96.12
2018-01-21T07:02:27.418Z,96.21
2018-01-21T07:03:27.421Z,96.40
2018-01-21T07:04:27.417Z,96.50
2018-01-21T07:05:27.413Z,96.36
2018-01-21T07:06:27.426Z,95.83
2018-01-21T07:07:27.418Z,95.93
2018-01-21T07:08:27.420Z,95.26
2018-01-21T07:09:27.418Z,94.98
2018-01-21T07:10:27.422Z,94.98
2018-01-21T07:11:27.419Z,96.21
2018-01-21T07:12:28.296Z,95.45
2018-01-21T07:13:27.448Z,95.74
2018-01-21T07:15:20.409Z,95.55
2018-01-21T07:16:20.351Z,96.40
2018-01-21T07:18:13.299Z,96.31
2018-01-21T07:19:13.279Z,96.88
2018-01-21T07:21:06.241Z,97.16
2018-01-21T07:22:06.236Z,96.97
2018-01-21T07:23:59.218Z,96.78
2018-01-21T07:24:59.190Z,96.31
2018-01-21T07:26:52.663Z,96.97
2018-01-21T07:27:52.146Z,97.16
2018-01-21T07:29:45.112Z,96.69
2018-01-21T07:30:45.107Z,96.69
2018-01-21T07:32:38.087Z,96.88
2018-01-21T07:33:38.064Z,96.59
2018-01-21T07:35:31.028Z,96.50
2018-01-21T07:36:31.018Z,96.31
2018-01-21T07:38:24.006Z,96.50
2018-01-21T07:39:23.975Z,96.50
2018-01-21T07:41:16.945Z,96.02
2018-01-21T07:42:16.932Z,96.02
2018-01-21T07:44:09.922Z,95.55
2018-01-21T07:45:09.894Z,95.74
2018-01-21T07:46:09.894Z,95.83
2018-01-21T07:47:09.894Z,95.74
2018-01-21T07:48:09.893Z,95.74
2018-01-21T07:49:09.896Z,95.55
2018-01-21T07:50:09.899Z,95.55
2018-01-21T07:51:09.893Z,95.69
2018-01-21T07:52:09.896Z,95.79
2018-01-21T07:53:09.898Z,95.60
2018-01-21T07:54:09.898Z,95.41
2018-01-21T07:55:09.919Z,95.22
2018-01-21T07:56:09.895Z,95.22
2018-01-21T07:57:09.900Z,95.22
2018-01-21T07:58:09.897Z,95.03
2018-01-21T07:59:09.900Z,95.31
2018-01-21T08:00:09.898Z,95.79
2018-01-21T08:01:09.899Z,95.22
2018-01-21T08:02:09.895Z,94.74
2018-01-21T08:03:09.902Z,94.65
2018-01-21T08:04:09.906Z,95.03
2018-01-21T08:05:09.903Z,94.65
2018-01-21T08:06:09.903Z,94.74
2018-01-21T08:07:09.907Z,94.18
2018-01-21T08:08:09.904Z,94.18
2018-01-21T08:09:09.909Z,94.84
2018-01-21T08:10:09.907Z,95.03
2018-01-21T08:11:09.913Z,94.84
2018-01-21T08:12:09.906Z,94.27
2018-01-21T08:13:09.907Z,94.37
2018-01-21T08:14:09.912Z,93.99
2018-01-21T08:15:09.909Z,94.60
2018-01-21T08:16:09.912Z,93.94
2018-01-21T08:17:09.908Z,93.84
2018-01-21T08:18:09.914Z,93.65
2018-01-21T08:19:09.915Z,93.84
2018-01-21T08:20:09.916Z,93.65
2018-01-21T08:21:09.914Z,93.94
2018-01-21T08:22:09.918Z,93.56
2018-01-21T08:23:09.916Z,93.84
2018-01-21T08:24:09.923Z,94.04
2018-01-21T08:25:09.921Z,94.42
2018-01-21T08:26:09.922Z,94.32
2018-01-21T08:27:09.931Z,93.65
2018-01-21T08:28:09.948Z,93.80
2018-01-21T08:29:09.925Z,93.80
2018-01-21T08:30:09.922Z,93.84
2018-01-21T08:31:09.928Z,93.27
2018-01-21T08:32:09.925Z,93.94
2018-01-21T08:33:09.933Z,92.99
2018-01-21T08:34:09.933Z,92.80
2018-01-21T08:35:09.929Z,92.23
2018-01-21T08:36:09.934Z,92.61
2018-01-21T08:37:09.935Z,92.33
2018-01-21T08:38:09.940Z,92.61
2018-01-21T08:39:09.938Z,92.04
2018-01-21T08:40:09.939Z,92.33
2018-01-21T08:41:09.936Z,92.61
2018-01-21T08:42:09.943Z,92.71
2018-01-21T08:43:09.943Z,93.27
2018-01-21T08:44:09.944Z,93.08
2018-01-21T08:45:09.945Z,92.90
2018-01-21T08:46:09.947Z,92.99
2018-01-21T08:47:09.946Z,92.90
2018-01-21T08:48:09.951Z,92.42
2018-01-21T08:49:10.886Z,92.71
2018-01-21T08:50:09.949Z,92.61
2018-01-21T08:51:09.967Z,92.80
2018-01-21T08:52:09.952Z,92.23
2018-01-21T08:53:09.954Z,92.52
2018-01-21T08:54:09.959Z,92.42
2018-01-21T08:55:09.957Z,91.90
2018-01-21T08:56:09.959Z,91.33
2018-01-21T08:57:09.965Z,91.24
2018-01-21T08:58:09.965Z,91.80
2018-01-21T08:59:09.965Z,91.66
2018-01-21T09:00:09.964Z,91.90
2018-01-21T09:01:09.971Z,91.99
2018-01-21T09:02:09.974Z,91.71
2018-01-21T09:03:09.972Z,91.38
2018-01-21T09:04:09.972Z,91.61
2018-01-21T09:05:09.978Z,91.47
2018-01-21T09:06:09.977Z,91.47
2018-01-21T09:07:09.978Z,91.61
2018-01-21T09:08:10.025Z,91.42
2018-01-21T09:09:09.985Z,91.52
2018-01-21T09:10:09.986Z,91.61
2018-01-21T09:11:09.986Z,91.05
2018-01-21T09:12:09.989Z,91.14
2018-01-21T09:13:09.991Z,91.14
2018-01-21T09:14:09.991Z,91.24
2018-01-21T09:15:09.996Z,91.61
2018-01-21T09:16:09.996Z,91.52
2018-01-21T09:17:09.994Z,90.76
2018-01-21T09:18:09.995Z,90.67
2018-01-21T09:19:10.002Z,90.95
2018-01-21T09:20:10.005Z,90.57
2018-01-21T09:21:10.010Z,90.95
2018-01-21T09:22:10.011Z,90.57
2018-01-21T09:23:10.005Z,90.57
2018-01-21T09:24:10.011Z,91.05
2018-01-21T09:25:10.010Z,90.86
2018-01-21T09:26:10.025Z,91.52
2018-01-21T09:27:10.023Z,90.86
2018-01-21T09:28:10.014Z,90.81
2018-01-21T09:29:10.025Z,91.14
2018-01-21T09:30:10.024Z,91.42
2018-01-21T09:31:10.021Z,91.05
2018-01-21T09:32:10.023Z,91.52
2018-01-21T09:33:10.025Z,90.95
2018-01-21T09:34:10.031Z,91.00
2018-01-21T09:35:10.028Z,91.00
2018-01-21T09:36:10.031Z,91.76
2018-01-21T09:37:10.031Z,91.95
2018-01-21T09:38:10.042Z,91.90
2018-01-21T09:39:10.034Z,91.05
2018-01-21T09:40:10.041Z,90.76
2018-01-21T09:41:10.043Z,90.86
2018-01-21T09:42:10.045Z,90.00
2018-01-21T09:43:10.051Z,89.62
2018-01-21T09:44:10.048Z,89.53
2018-01-21T09:45:10.046Z,88.96
2018-01-21T09:46:10.050Z,88.87
2018-01-21T09:47:10.059Z,89.25
2018-01-21T09:48:10.057Z,89.25
2018-01-21T09:49:10.055Z,89.43
2018-01-21T09:50:10.057Z,89.43
2018-01-21T09:51:10.063Z,89.53
2018-01-21T09:52:10.063Z,90.00
2018-01-21T09:53:10.063Z,89.72
2018-01-21T09:54:10.066Z,90.00
2018-01-21T09:55:10.072Z,89.34
2018-01-21T09:56:10.067Z,89.91
2018-01-21T09:57:10.136Z,90.10
2018-01-21T09:58:10.072Z,90.19
2018-01-21T09:59:10.074Z,90.10
2018-01-21T10:00:10.075Z,89.06
2018-01-21T10:01:10.083Z,89.06
2018-01-21T10:02:10.082Z,88.96
2018-01-21T10:03:10.090Z,89.39
2018-01-21T10:04:10.090Z,88.62
2018-01-21T10:05:10.091Z,88.34
2018-01-21T10:06:10.089Z,88.43
2018-01-21T10:07:10.096Z,87.68
2018-01-21T10:08:10.097Z,86.91
2018-01-21T10:09:10.096Z,87.05
2018-01-21T10:10:10.100Z,86.30
2018-01-21T10:11:10.106Z,85.44
2018-01-21T10:12:10.105Z,85.72
2018-01-21T10:13:10.112Z,85.25
2018-01-21T10:14:10.112Z,84.44
2018-01-21T10:15:10.115Z,82.82
2018-01-21T10:16:10.122Z,82.92
2018-01-21T10:17:10.122Z,82.45
2018-01-21T10:18:10.124Z,83.01
2018-01-21T10:19:10.134Z,82.64
2018-01-21T10:20:10.130Z,82.35
2018-01-21T10:21:10.136Z,82.64
2018-01-21T10:22:10.139Z,82.92
2018-01-21T10:23:10.211Z,83.54
2018-01-21T10:24:10.143Z,83.92
2018-01-21T10:25:10.177Z,84.59
2018-01-21T10:26:10.178Z,86.07
2018-01-21T10:27:10.159Z,86.63
2018-01-21T10:28:10.183Z,86.63
2018-01-21T10:29:10.165Z,87.49
2018-01-21T10:30:10.177Z,87.20
2018-01-21T10:31:10.176Z,87.58
2018-01-21T10:32:10.176Z,87.30
2018-01-21T10:33:10.185Z,86.91
2018-01-21T10:34:10.187Z,86.44
2018-01-21T10:35:10.215Z,86.01
2018-01-21T10:36:10.191Z,86.01
2018-01-21T10:37:10.197Z,85.35
2018-01-21T10:38:10.199Z,85.63
2018-01-21T10:39:10.203Z,85.06
2018-01-21T10:40:10.202Z,84.40
2018-01-21T10:41:10.211Z,84.21
2018-01-21T10:42:10.211Z,84.11
2018-01-21T10:43:10.217Z,83.83
2018-01-21T10:44:10.218Z,84.01
2018-01-21T10:45:10.224Z,83.92
2018-01-21T10:46:10.223Z,84.21
2018-01-21T10:47:10.239Z,84.11
2018-01-21T10:48:10.254Z,83.45
2018-01-21T10:49:10.237Z,83.45
2018-01-21T10:50:10.245Z,83.26
2018-01-21T10:51:10.239Z,83.83
2018-01-21T10:52:10.268Z,83.36
2018-01-21T10:53:10.244Z,83.83
2018-01-21T10:54:10.253Z,84.59
2018-01-21T10:55:10.250Z,84.87
2018-01-21T10:56:10.258Z,84.40
2018-01-21T10:57:10.260Z,84.59
2018-01-21T10:58:10.262Z,84.21
2018-01-21T10:59:10.758Z,84.21
2018-01-21T11:00:10.271Z,84.11
2018-01-21T11:01:10.317Z,84.21
2018-01-21T11:02:10.278Z,84.40
2018-01-21T11:03:10.986Z,84.59
2018-01-21T11:04:10.284Z,85.44
2018-01-21T11:05:10.282Z,85.53
2018-01-21T11:06:10.288Z,85.53
2018-01-21T11:07:10.298Z,85.16
2018-01-21T11:08:10.304Z,85.06
2018-01-21T11:09:10.294Z,85.35
2018-01-21T11:10:10.304Z,85.16
2018-01-21T11:11:10.306Z,85.44
2018-01-21T11:12:10.310Z,85.35
2018-01-21T11:13:10.307Z,85.25
2018-01-21T11:14:10.310Z,84.59
2018-01-21T11:15:10.321Z,84.68
2018-01-21T11:16:10.321Z,84.68
2018-01-21T11:17:10.322Z,84.87
2018-01-21T11:18:10.324Z,84.59
2018-01-21T11:19:10.334Z,84.11
2018-01-21T11:20:10.332Z,83.73
2018-01-21T11:21:10.332Z,83.83
2018-01-21T11:22:10.341Z,83.45
2018-01-21T11:23:10.340Z,83.54
2018-01-21T11:24:10.342Z,83.07
2018-01-21T11:25:10.348Z,82.97
2018-01-21T11:26:10.396Z,82.97
2018-01-21T11:27:10.352Z,82.88
2018-01-21T11:28:10.353Z,82.88
2018-01-21T11:29:10.365Z,83.36
2018-01-21T11:30:10.362Z,83.16
2018-01-21T11:31:10.366Z,83.36
2018-01-21T11:32:10.369Z,83.64
2018-01-21T11:33:10.985Z,84.01
2018-01-21T11:34:10.396Z,84.01
2018-01-21T11:35:10.373Z,83.64
2018-01-21T11:36:10.379Z,83.36
2018-01-21T11:37:10.386Z,83.92
2018-01-21T11:38:10.411Z,84.11
2018-01-21T11:39:10.389Z,84.01
2018-01-21T11:40:10.404Z,84.11
2018-01-21T11:41:10.400Z,83.45
2018-01-21T11:42:10.403Z,83.64
2018-01-21T11:43:10.405Z,83.26
2018-01-21T11:44:10.428Z,83.26
2018-01-21T11:45:10.405Z,83.54
2018-01-21T11:46:10.410Z,84.30
2018-01-21T11:47:10.824Z,84.30
2018-01-21T11:48:10.417Z,84.40
2018-01-21T11:49:10.432Z,84.30
2018-01-21T11:50:10.444Z,84.11
2018-01-21T11:51:10.455Z,84.01
2018-01-21T11:52:12.762Z,84.49
2018-01-21T11:53:10.445Z,84.78
2018-01-21T11:54:10.438Z,85.44
2018-01-21T11:55:10.440Z,85.35
2018-01-21T11:56:10.443Z,84.59
2018-01-21T11:57:10.445Z,84.68
2018-01-21T11:58:10.449Z,85.53
2018-01-21T11:59:10.449Z,85.16
2018-01-21T12:00:10.454Z,85.44
2018-01-21T12:01:10.454Z,85.35
2018-01-21T12:02:10.461Z,85.44
2018-01-21T12:03:10.459Z,85.35
2018-01-21T12:04:10.466Z,84.78
2018-01-21T12:05:10.463Z,84.59
2018-01-21T12:06:10.469Z,84.30
2018-01-21T12:07:10.472Z,84.49
2018-01-21T12:08:10.474Z,84.01
2018-01-21T12:09:10.471Z,83.92
2018-01-21T12:10:10.496Z,84.30
2018-01-21T12:11:10.482Z,83.92
2018-01-21T12:12:10.485Z,83.73
2018-01-21T12:13:10.493Z,83.73
2018-01-21T12:14:10.494Z,83.54
2018-01-21T12:15:10.494Z,83.26
2018-01-21T12:16:10.502Z,83.16
2018-01-21T12:17:10.498Z,83.73
2018-01-21T12:18:10.500Z,83.73
2018-01-21T12:19:10.510Z,83.54
2018-01-21T12:20:10.508Z,84.40
2018-01-21T12:21:10.514Z,83.92
2018-01-21T12:22:10.515Z,84.11
2018-01-21T12:23:10.521Z,83.92
2018-01-21T12:24:10.523Z,82.88
2018-01-21T12:25:10.523Z,83.83
2018-01-21T12:26:10.527Z,83.45
2018-01-21T12:27:10.533Z,83.45
2018-01-21T12:28:10.537Z,83.68
2018-01-21T12:29:10.538Z,83.01
2018-01-21T12:30:10.591Z,83.01
2018-01-21T12:31:10.548Z,82.50
2018-01-21T12:32:10.543Z,82.92
2018-01-21T12:33:10.550Z,82.35
2018-01-21T12:34:10.555Z,82.73
2018-01-21T12:35:10.548Z,82.07
2018-01-21T12:36:10.556Z,82.35
2018-01-21T12:37:10.562Z,82.73
2018-01-21T12:38:10.567Z,82.35
2018-01-21T12:39:10.563Z,83.11
2018-01-21T12:40:10.565Z,82.92
2018-01-21T12:41:10.572Z,82.64
2018-01-21T12:42:10.573Z,82.64
2018-01-21T12:43:10.585Z,82.64
2018-01-21T12:44:10.578Z,82.45
2018-01-21T12:45:10.587Z,81.78
2018-01-21T12:46:10.587Z,82.07
2018-01-21T12:47:10.595Z,81.97
2018-01-21T12:48:10.588Z,81.87
2018-01-21T12:49:10.598Z,81.78
2018-01-21T12:50:10.629Z,81.21
2018-01-21T12:51:10.606Z,80.88
2018-01-21T12:52:10.604Z,81.55
2018-01-21T12:53:10.611Z,81.93
2018-01-21T12:54:10.609Z,82.50
2018-01-21T12:55:10.614Z,83.07
2018-01-21T12:56:10.615Z,82.88
2018-01-21T12:57:10.622Z,82.97
2018-01-21T12:58:10.637Z,82.88
2018-01-21T12:59:10.627Z,82.88
2018-01-21T13:00:10.631Z,83.36
2018-01-21T13:01:10.628Z,83.64
2018-01-21T13:02:10.633Z,83.68
2018-01-21T13:03:10.641Z,83.45
2018-01-21T13:04:10.642Z,83.54
2018-01-21T13:05:10.642Z,82.82
2018-01-21T13:06:10.646Z,83.11
2018-01-21T13:07:10.651Z,82.92
2018-01-21T13:08:10.651Z,82.92
2018-01-21T13:09:10.652Z,82.82
2018-01-21T13:10:10.657Z,83.30
2018-01-21T13:11:10.664Z,82.73